首页
METAR-TAF:

METAR-TAF

机场 :

热那亚-克里斯托弗·哥伦布机场

热那亚, 意大利

纬度: 44-25N, 经度: 008-51E, 海拔: 2米

当前天气观测

该预报发布于27分钟前的07:50 UTC
风速13节,风向北转东北
温度 10°C
湿度 25%
气压 1034 hPa
能见度10公里或以上
少量云层高于6000英尺
散云层高于7500英尺

METAR: LIMJ 220750Z 03013KT 9999 FEW060 SCT075 10/M09 Q1034

时间: 09:17 (08:17 UTC)

预报

该预报发布于3小时和17分钟前的05:00 UTC
预报有效从22日的 06点(UTC)到 23日的 06点(UTC)
风速15节,风向北转东北
能见度10公里或以上
1500米以下无云,无积雨云
成为
从 22日的 07点(UTC)到 22日的 10点(UTC)
风速5节,风向东北

TAF: LIMJ 220500Z 2206/2306 02015KT CAVOK BECMG 2207/2210 04005KT

超过4000个机场的气象观测和天气预报(METAR&TAF报告)。

可查询的气象台以黄色和红色小点在地图上表示。

将鼠标移到小点上方,可查看气象台名称。

然后点击查看天气观测和预报。

如需切换地图:点击带黑十字的绿色按钮放大地图;点击带横线的绿色按钮缩小地图;或者点击绿色箭头查看邻近地区的地图。


METAR-TAF: